createdAt,value
2019-05-20T00:00:55.721Z,16.08
2019-05-20T00:03:25.099Z,16.08
2019-05-20T00:05:54.589Z,16.13
2019-05-20T00:08:23.977Z,15.61
2019-05-20T00:10:53.330Z,15.69
2019-05-20T00:13:22.701Z,15.76
2019-05-20T00:15:52.128Z,15.74
2019-05-20T00:18:22.310Z,15.74
2019-05-20T00:20:51.667Z,15.49
2019-05-20T00:23:21.024Z,15.37
2019-05-20T00:25:50.391Z,15.71
2019-05-20T00:28:19.854Z,15.63
2019-05-20T00:30:49.228Z,15.63
2019-05-20T00:33:18.613Z,15.43
2019-05-20T00:35:47.972Z,15.65
2019-05-20T00:38:17.343Z,15.67
2019-05-20T00:40:46.765Z,15.27
2019-05-20T00:43:16.104Z,15.48
2019-05-20T00:45:45.446Z,15.65
2019-05-20T00:48:14.810Z,15.74
2019-05-20T00:50:44.154Z,15.56
2019-05-20T00:53:15.602Z,15.46
2019-05-20T00:55:45.061Z,15.65
2019-05-20T00:58:14.406Z,15.70
2019-05-20T01:00:43.857Z,15.62
2019-05-20T01:03:13.212Z,15.72
2019-05-20T01:05:42.560Z,15.76
2019-05-20T01:08:11.932Z,15.73
2019-05-20T01:10:41.612Z,15.67
2019-05-20T01:13:10.937Z,15.80
2019-05-20T01:15:40.283Z,15.72
2019-05-20T01:18:09.640Z,15.78
2019-05-20T01:20:39.019Z,15.77
2019-05-20T01:23:08.368Z,15.73
2019-05-20T01:25:37.729Z,15.46
2019-05-20T01:28:07.100Z,15.46
2019-05-20T01:30:36.418Z,15.56
2019-05-20T01:33:13.764Z,15.54
2019-05-20T01:35:36.914Z,15.55
2019-05-20T01:38:06.290Z,15.57
2019-05-20T01:40:35.710Z,15.64
2019-05-20T01:43:05.037Z,15.63
2019-05-20T01:45:34.377Z,15.40
2019-05-20T01:48:03.756Z,15.43
2019-05-20T01:50:33.107Z,15.42
2019-05-20T01:53:02.454Z,15.23
2019-05-20T01:55:31.785Z,15.23
2019-05-20T01:58:01.172Z,15.42
2019-05-20T02:00:30.516Z,15.48
2019-05-20T02:02:59.885Z,15.48
2019-05-20T02:05:29.254Z,15.49
2019-05-20T02:07:59.016Z,15.65
2019-05-20T02:10:28.362Z,15.63
2019-05-20T02:12:57.786Z,15.49
2019-05-20T02:15:33.272Z,15.46
2019-05-20T02:18:02.638Z,15.55
2019-05-20T02:20:31.989Z,15.59
2019-05-20T02:23:16.611Z,15.60
2019-05-20T02:25:47.214Z,15.55
2019-05-20T02:28:17.193Z,15.55
2019-05-20T02:30:46.599Z,15.49
2019-05-20T02:33:15.988Z,15.46
2019-05-20T02:35:45.333Z,15.49
2019-05-20T02:38:14.687Z,15.25
2019-05-20T02:40:44.042Z,15.22
2019-05-20T02:43:13.687Z,15.22
2019-05-20T02:45:43.052Z,15.15
2019-05-20T02:48:12.402Z,15.06
2019-05-20T02:50:41.776Z,15.06
2019-05-20T02:53:11.126Z,15.07
2019-05-20T02:55:40.457Z,14.92
2019-05-20T02:58:09.826Z,14.99
2019-05-20T03:00:39.170Z,14.97
2019-05-20T03:03:08.528Z,14.97
2019-05-20T03:05:37.904Z,15.03
2019-05-20T03:08:08.353Z,15.03
2019-05-20T03:10:37.758Z,15.18
2019-05-20T03:13:07.155Z,15.13
2019-05-20T03:15:36.548Z,15.13
2019-05-20T03:18:05.935Z,15.13
2019-05-20T03:20:35.300Z,15.06
2019-05-20T03:23:04.630Z,15.06
2019-05-20T03:25:33.975Z,14.94
2019-05-20T03:28:03.355Z,14.60
2019-05-20T03:30:32.763Z,14.82
2019-05-20T03:33:02.161Z,15.08
2019-05-20T03:35:31.530Z,15.06
2019-05-20T03:38:00.898Z,15.01
2019-05-20T03:40:30.261Z,14.99
2019-05-20T03:42:59.594Z,15.05
2019-05-20T03:45:28.934Z,15.12
2019-05-20T03:47:58.271Z,15.10
2019-05-20T03:50:27.633Z,15.11
2019-05-20T03:52:57.447Z,15.11
2019-05-20T03:55:26.811Z,15.25
2019-05-20T03:57:56.193Z,15.26
2019-05-20T04:00:43.387Z,15.19
2019-05-20T04:03:13.322Z,15.29
2019-05-20T04:05:42.870Z,15.20
2019-05-20T04:08:12.436Z,15.39
2019-05-20T04:10:41.812Z,15.39
2019-05-20T04:13:11.253Z,15.39
2019-05-20T04:15:40.754Z,15.43
2019-05-20T04:18:10.207Z,15.43
2019-05-20T04:20:39.684Z,15.43
2019-05-20T04:23:09.044Z,15.50
2019-05-20T04:25:38.391Z,15.57
2019-05-20T04:28:07.857Z,15.68
2019-05-20T04:30:37.241Z,15.76
2019-05-20T04:33:06.563Z,15.90
2019-05-20T04:35:35.932Z,16.04
2019-05-20T04:38:05.301Z,16.15
2019-05-20T04:40:34.666Z,16.19
2019-05-20T04:43:04.018Z,16.26
2019-05-20T04:45:33.485Z,16.33
2019-05-20T04:48:02.865Z,16.44
2019-05-20T04:50:32.225Z,16.49
2019-05-20T04:53:01.635Z,16.54
2019-05-20T04:55:30.951Z,16.57
2019-05-20T04:58:00.306Z,16.39
2019-05-20T05:01:03.951Z,16.50
2019-05-20T05:03:33.270Z,16.60
2019-05-20T05:06:02.794Z,16.29
2019-05-20T05:08:32.092Z,16.31
2019-05-20T05:11:01.557Z,16.49
2019-05-20T05:13:31.025Z,16.43
2019-05-20T05:16:00.451Z,16.36
2019-05-20T05:18:29.774Z,16.38
2019-05-20T05:20:59.181Z,16.53
2019-05-20T05:23:28.510Z,16.57
2019-05-20T05:25:57.876Z,16.63
2019-05-20T05:28:27.305Z,16.80
2019-05-20T05:30:56.683Z,17.01
2019-05-20T05:33:26.018Z,17.12
2019-05-20T05:35:55.366Z,17.25
2019-05-20T05:38:24.726Z,17.38
2019-05-20T05:40:54.090Z,17.30
2019-05-20T05:43:23.503Z,17.35
2019-05-20T05:45:52.870Z,17.40
2019-05-20T05:48:22.301Z,17.39
2019-05-20T05:50:51.672Z,17.52
2019-05-20T05:53:21.091Z,17.71
2019-05-20T05:55:50.513Z,17.85
2019-05-20T05:58:19.861Z,17.98
2019-05-20T06:00:49.221Z,18.21
2019-05-20T06:03:18.669Z,18.38
2019-05-20T06:05:48.022Z,18.51
2019-05-20T06:08:17.399Z,18.55
2019-05-20T06:10:46.838Z,18.52
2019-05-20T06:13:16.288Z,18.67
2019-05-20T06:15:45.651Z,18.76
2019-05-20T06:18:14.986Z,18.94
2019-05-20T06:20:44.345Z,18.94
2019-05-20T06:23:13.767Z,19.11
2019-05-20T06:25:43.096Z,19.11
2019-05-20T06:28:12.479Z,19.18
2019-05-20T06:30:44.673Z,19.24
2019-05-20T06:33:14.112Z,19.20
2019-05-20T06:35:43.845Z,19.31
2019-05-20T06:38:21.587Z,19.38
2019-05-20T06:40:50.953Z,19.31
2019-05-20T06:43:20.729Z,19.42
2019-05-20T06:45:50.097Z,19.38
2019-05-20T06:48:28.579Z,19.36
2019-05-20T06:51:00.020Z,19.20
2019-05-20T06:53:29.443Z,19.22
2019-05-20T06:55:58.850Z,19.22
2019-05-20T06:58:28.207Z,19.16
2019-05-20T07:00:57.575Z,19.15
2019-05-20T07:03:27.062Z,19.19
2019-05-20T07:05:57.003Z,19.32
2019-05-20T07:11:03.902Z,19.39
2019-05-20T07:13:33.306Z,19.13
2019-05-20T07:16:02.785Z,19.11
2019-05-20T07:18:32.182Z,19.11
2019-05-20T07:21:01.606Z,19.00
2019-05-20T07:23:31.035Z,19.03
2019-05-20T07:26:00.420Z,19.05
2019-05-20T07:28:30.018Z,19.20
2019-05-20T07:30:59.383Z,19.29
2019-05-20T07:33:28.731Z,19.36
2019-05-20T07:35:58.084Z,19.47
2019-05-20T07:38:27.442Z,19.65
2019-05-20T07:40:56.824Z,19.59
2019-05-20T07:43:26.400Z,19.72
2019-05-20T07:45:55.856Z,19.76
2019-05-20T07:48:25.490Z,19.84
2019-05-20T07:50:55.456Z,19.75
2019-05-20T07:53:25.029Z,19.85
2019-05-20T07:56:06.161Z,19.94
2019-05-20T07:58:38.669Z,19.95
2019-05-20T08:01:08.061Z,20.03
2019-05-20T08:03:38.714Z,20.11
2019-05-20T08:06:08.274Z,20.28
2019-05-20T08:08:37.629Z,20.30
2019-05-20T08:11:07.196Z,20.40
2019-05-20T08:13:36.616Z,20.49
2019-05-20T08:16:06.003Z,20.61
2019-05-20T08:18:35.348Z,20.70
2019-05-20T08:21:04.833Z,20.70
2019-05-20T08:23:34.238Z,20.71
2019-05-20T08:26:03.637Z,20.82
2019-05-20T08:28:33.031Z,21.02
2019-05-20T08:31:02.577Z,21.09
2019-05-20T08:33:31.970Z,21.32
2019-05-20T08:36:01.316Z,21.39
2019-05-20T08:38:30.741Z,21.27
2019-05-20T08:41:00.127Z,21.32
2019-05-20T08:43:29.560Z,21.51
2019-05-20T08:45:58.965Z,21.66
2019-05-20T08:48:28.508Z,21.81
2019-05-20T08:50:57.866Z,22.00
2019-05-20T08:53:27.290Z,22.25
2019-05-20T08:55:56.665Z,22.45
2019-05-20T08:58:26.329Z,22.65
2019-05-20T09:00:55.754Z,22.73
2019-05-20T09:03:25.324Z,22.96
2019-05-20T09:05:54.664Z,22.97
2019-05-20T09:08:24.049Z,23.00
2019-05-20T09:10:53.478Z,22.74
2019-05-20T09:13:22.961Z,22.88
2019-05-20T09:15:52.363Z,22.66
2019-05-20T09:18:21.707Z,22.61
2019-05-20T09:20:51.144Z,22.90
2019-05-20T09:23:20.577Z,22.57
2019-05-20T09:25:49.918Z,22.80
2019-05-20T09:28:19.311Z,22.63
2019-05-20T09:30:48.703Z,22.74
2019-05-20T09:33:18.264Z,23.27
2019-05-20T09:35:47.708Z,23.42
2019-05-20T09:38:20.755Z,23.53
2019-05-20T09:40:49.389Z,23.92
2019-05-20T09:43:18.936Z,24.28
2019-05-20T09:46:04.159Z,24.67
2019-05-20T09:48:19.547Z,24.84
2019-05-20T09:50:48.928Z,24.97
2019-05-20T09:53:18.450Z,24.84
2019-05-20T09:55:47.820Z,24.64
2019-05-20T09:58:17.177Z,24.69
2019-05-20T10:00:47.148Z,24.76
2019-05-20T10:03:16.556Z,24.63
2019-05-20T10:05:45.894Z,23.92
2019-05-20T10:08:15.276Z,23.70
2019-05-20T10:10:44.648Z,23.32
2019-05-20T10:13:14.336Z,23.23
2019-05-20T10:15:43.810Z,23.41
2019-05-20T10:18:13.180Z,22.96
2019-05-20T10:20:42.674Z,22.99
2019-05-20T10:23:15.900Z,23.07
2019-05-20T10:25:44.804Z,22.91
2019-05-20T10:28:14.178Z,22.50
2019-05-20T10:30:43.602Z,22.32
2019-05-20T10:33:13.032Z,22.00
2019-05-20T10:35:42.408Z,21.69
2019-05-20T10:38:11.800Z,21.49
2019-05-20T10:40:41.176Z,21.14
2019-05-20T10:43:10.623Z,20.88
2019-05-20T10:45:40.057Z,20.48
2019-05-20T10:48:09.457Z,20.11
2019-05-20T10:50:38.870Z,19.71
2019-05-20T10:53:08.331Z,19.38
2019-05-20T10:55:37.776Z,18.96
2019-05-20T10:58:07.153Z,18.70
2019-05-20T11:00:36.539Z,18.44
2019-05-20T11:03:05.928Z,18.43
2019-05-20T11:05:35.385Z,18.41
2019-05-20T11:08:04.798Z,18.50
2019-05-20T11:10:34.206Z,18.37
2019-05-20T11:13:03.716Z,18.28
2019-05-20T11:15:34.504Z,18.31
2019-05-20T11:18:03.906Z,18.35
2019-05-20T11:20:33.301Z,18.36
2019-05-20T11:23:02.713Z,18.47
2019-05-20T11:25:32.165Z,18.57
2019-05-20T11:28:01.612Z,18.63
2019-05-20T11:30:31.447Z,18.68
2019-05-20T11:33:00.832Z,18.74
2019-05-20T11:35:30.233Z,18.77
2019-05-20T11:37:59.640Z,18.81
2019-05-20T11:40:30.497Z,18.97
2019-05-20T11:42:59.924Z,19.06
2019-05-20T11:45:29.347Z,19.01
2019-05-20T11:47:58.708Z,19.02
2019-05-20T11:50:28.450Z,19.00
2019-05-20T11:52:57.883Z,19.09
2019-05-20T11:55:28.369Z,19.09
2019-05-20T11:58:12.840Z,19.13
2019-05-20T12:00:29.016Z,19.02
2019-05-20T12:02:58.406Z,19.20
2019-05-20T12:05:29.839Z,19.27
2019-05-20T12:07:58.901Z,19.41
2019-05-20T12:10:28.471Z,19.32
2019-05-20T12:12:57.863Z,19.30
2019-05-20T12:15:27.310Z,19.33
2019-05-20T12:17:56.680Z,19.18
2019-05-20T12:20:26.064Z,19.08
2019-05-20T12:22:55.480Z,18.92
2019-05-20T12:25:25.218Z,18.93
2019-05-20T12:27:54.581Z,18.84
2019-05-20T12:30:24.146Z,18.74
2019-05-20T12:33:17.262Z,18.63
2019-05-20T12:35:24.716Z,18.49
2019-05-20T12:37:54.124Z,18.56
2019-05-20T12:40:23.771Z,18.47
2019-05-20T12:42:53.197Z,18.29
2019-05-20T12:45:22.599Z,18.20
2019-05-20T12:47:52.023Z,17.41
2019-05-20T12:50:21.378Z,16.98
2019-05-20T12:52:50.821Z,16.24
2019-05-20T12:55:20.660Z,16.32
2019-05-20T12:57:50.072Z,16.20
2019-05-20T13:00:20.649Z,16.09
2019-05-20T13:02:50.071Z,16.24
2019-05-20T13:05:20.806Z,16.27
2019-05-20T13:07:50.176Z,16.42
2019-05-20T13:10:31.184Z,16.45
2019-05-20T13:12:50.857Z,16.33
2019-05-20T13:15:20.635Z,16.53
2019-05-20T13:17:50.016Z,16.63
2019-05-20T13:20:20.927Z,16.75
2019-05-20T13:22:50.608Z,16.67
2019-05-20T13:25:20.015Z,16.64
2019-05-20T13:27:49.395Z,16.74
2019-05-20T13:30:20.782Z,16.81
2019-05-20T13:32:50.169Z,17.02
2019-05-20T13:35:19.936Z,17.29
2019-05-20T13:37:49.333Z,17.54
2019-05-20T13:40:19.235Z,17.71
2019-05-20T13:42:48.607Z,17.84
2019-05-20T13:45:18.088Z,17.88
2019-05-20T13:47:47.465Z,17.92
2019-05-20T13:50:17.151Z,18.26
2019-05-20T13:52:47.494Z,18.28
2019-05-20T13:55:17.895Z,18.36
2019-05-20T13:57:47.245Z,18.14
2019-05-20T14:00:18.393Z,18.29
2019-05-20T14:02:47.748Z,18.23
2019-05-20T14:05:17.308Z,17.94
2019-05-20T14:07:46.645Z,18.11
2019-05-20T14:10:16.926Z,18.38
2019-05-20T14:12:46.277Z,18.58
2019-05-20T14:15:15.699Z,18.68
2019-05-20T14:17:45.078Z,18.79
2019-05-20T14:20:15.858Z,18.81
2019-05-20T14:22:45.226Z,18.75
2019-05-20T14:25:14.750Z,18.60
2019-05-20T14:27:44.111Z,18.41
2019-05-20T14:30:14.154Z,18.32
2019-05-20T14:32:43.521Z,18.20
2019-05-20T14:35:13.526Z,18.06
2019-05-20T14:37:42.948Z,17.87
2019-05-20T14:40:12.868Z,17.88
2019-05-20T14:42:42.275Z,17.79
2019-05-20T14:45:11.925Z,17.69
2019-05-20T14:47:41.303Z,17.55
2019-05-20T14:50:10.876Z,17.52
2019-05-20T14:52:40.246Z,17.47
2019-05-20T14:55:10.657Z,17.38
2019-05-20T14:57:40.704Z,17.08
2019-05-20T15:00:10.337Z,16.48
2019-05-20T15:02:39.791Z,16.08
2019-05-20T15:05:09.567Z,15.64
2019-05-20T15:07:38.941Z,15.15
2019-05-20T15:10:09.471Z,15.15
2019-05-20T15:12:38.880Z,15.16
2019-05-20T15:15:09.736Z,15.11
2019-05-20T15:17:39.171Z,15.19
2019-05-20T15:20:08.965Z,15.25
2019-05-20T15:22:41.504Z,15.34
2019-05-20T15:25:11.629Z,15.64
2019-05-20T15:27:41.146Z,15.64
2019-05-20T15:30:11.096Z,15.78
2019-05-20T15:32:40.493Z,15.94
2019-05-20T15:35:10.062Z,16.10
2019-05-20T15:37:39.458Z,16.25
2019-05-20T15:40:11.007Z,16.46
2019-05-20T15:42:40.419Z,16.63
2019-05-20T15:45:11.402Z,16.78
2019-05-20T15:47:41.238Z,16.99
2019-05-20T15:50:11.060Z,17.10
2019-05-20T15:52:40.833Z,17.26
2019-05-20T15:55:10.364Z,17.27
2019-05-20T15:57:39.796Z,17.39
2019-05-20T16:00:10.399Z,17.30
2019-05-20T16:02:39.867Z,17.47
2019-05-20T16:05:09.502Z,17.78
2019-05-20T16:07:39.000Z,17.93
2019-05-20T16:10:08.511Z,17.80
2019-05-20T16:12:37.873Z,17.64
2019-05-20T16:15:07.568Z,17.66
2019-05-20T16:17:37.021Z,17.45
2019-05-20T16:20:07.299Z,17.36
2019-05-20T16:22:36.755Z,17.10
2019-05-20T16:25:06.585Z,17.01
2019-05-20T16:27:38.162Z,16.96
2019-05-20T16:30:08.255Z,16.97
2019-05-20T16:32:37.642Z,17.05
2019-05-20T16:35:07.393Z,17.13
2019-05-20T16:37:36.766Z,17.31
2019-05-20T16:40:07.486Z,17.33
2019-05-20T16:42:36.904Z,17.24
2019-05-20T16:45:11.607Z,17.17
2019-05-20T16:47:39.138Z,16.98
2019-05-20T16:50:10.315Z,16.82
2019-05-20T16:52:39.743Z,16.72
2019-05-20T16:55:09.814Z,16.73
2019-05-20T16:57:39.266Z,16.66
2019-05-20T17:00:29.011Z,16.73
2019-05-20T17:02:40.567Z,17.07
2019-05-20T17:05:10.017Z,17.46
2019-05-20T17:07:39.466Z,17.68
2019-05-20T17:10:09.007Z,17.86
2019-05-20T17:12:38.379Z,18.04
2019-05-20T17:15:08.690Z,18.04
2019-05-20T17:17:38.170Z,18.00
2019-05-20T17:22:37.080Z,18.11
2019-05-20T17:25:06.623Z,17.98
2019-05-20T17:27:36.021Z,17.83
2019-05-20T17:30:06.655Z,17.72
2019-05-20T17:32:36.052Z,17.52
2019-05-20T17:35:05.830Z,17.34
2019-05-20T17:37:35.269Z,17.24
2019-05-20T17:40:05.784Z,17.16
2019-05-20T17:42:35.311Z,17.06
2019-05-20T17:45:04.926Z,16.86
2019-05-20T17:47:34.368Z,16.84
2019-05-20T17:50:03.733Z,16.77
2019-05-20T17:52:33.188Z,16.72
2019-05-20T17:55:02.667Z,16.65
2019-05-20T17:57:32.053Z,16.67
2019-05-20T18:00:01.475Z,16.49
2019-05-20T18:02:31.011Z,16.42
2019-05-20T18:05:00.358Z,15.80
2019-05-20T18:07:29.761Z,15.79
2019-05-20T18:09:59.130Z,15.77
2019-05-20T18:12:30.531Z,15.77
2019-05-20T18:15:01.606Z,15.77
2019-05-20T18:17:31.051Z,15.80
2019-05-20T18:20:00.434Z,15.71
2019-05-20T18:22:29.822Z,15.71
2019-05-20T18:24:59.181Z,15.60
2019-05-20T18:27:28.536Z,15.34
2019-05-20T18:29:57.939Z,15.28
2019-05-20T18:32:27.318Z,15.30
2019-05-20T18:34:56.687Z,15.32
2019-05-20T18:37:26.053Z,15.30
2019-05-20T18:39:55.429Z,15.36
2019-05-20T18:42:24.776Z,15.32
2019-05-20T18:44:54.135Z,15.30
2019-05-20T18:47:23.487Z,15.17
2019-05-20T18:49:54.466Z,14.95
2019-05-20T18:52:23.898Z,14.66
2019-05-20T18:54:53.299Z,14.66
2019-05-20T18:57:22.651Z,14.85
2019-05-20T18:59:52.027Z,14.77
2019-05-20T19:02:21.444Z,14.79
2019-05-20T19:04:50.985Z,14.79
2019-05-20T19:07:20.353Z,14.79
2019-05-20T19:09:49.758Z,14.82
2019-05-20T19:12:19.481Z,14.93
2019-05-20T19:14:49.025Z,14.97
2019-05-20T19:17:18.468Z,14.96
2019-05-20T19:19:47.930Z,14.96
2019-05-20T19:22:17.322Z,14.91
2019-05-20T19:24:46.724Z,14.86
2019-05-20T19:27:16.089Z,14.84
2019-05-20T19:29:45.580Z,14.78
2019-05-20T19:32:15.178Z,14.75
2019-05-20T19:34:44.560Z,14.59
2019-05-20T19:37:14.093Z,14.52
2019-05-20T19:39:43.525Z,14.48
2019-05-20T19:42:12.912Z,14.47
2019-05-20T19:44:42.615Z,14.41
2019-05-20T19:47:11.989Z,14.08
2019-05-20T19:49:42.575Z,14.08
2019-05-20T19:52:12.206Z,14.08
2019-05-20T19:54:41.586Z,14.02
2019-05-20T19:57:10.917Z,14.01
2019-05-20T19:59:40.324Z,13.85
2019-05-20T20:02:17.500Z,13.75
2019-05-20T20:04:41.025Z,13.77
2019-05-20T20:07:10.339Z,13.72
2019-05-20T20:09:39.819Z,13.75
2019-05-20T20:12:09.313Z,13.56
2019-05-20T20:14:38.673Z,13.49
2019-05-20T20:17:09.804Z,13.45
2019-05-20T20:19:39.537Z,13.43
2019-05-20T20:22:08.974Z,13.15
2019-05-20T20:24:38.599Z,13.03
2019-05-20T20:27:08.002Z,13.30
2019-05-20T20:29:37.528Z,13.40
2019-05-20T20:32:06.931Z,13.47
2019-05-20T20:34:36.293Z,13.53
2019-05-20T20:37:05.623Z,13.54
2019-05-20T20:39:35.032Z,13.55
2019-05-20T20:42:04.418Z,13.63
2019-05-20T20:44:33.781Z,13.68
2019-05-20T20:47:03.140Z,13.70
2019-05-20T20:49:32.573Z,13.67
2019-05-20T20:52:02.009Z,13.65
2019-05-20T20:54:31.429Z,13.64
2019-05-20T20:57:00.846Z,13.53
2019-05-20T20:59:30.225Z,13.48
2019-05-20T21:01:59.691Z,13.54
2019-05-20T21:04:29.063Z,13.53
2019-05-20T21:06:59.821Z,13.42
2019-05-20T21:09:29.277Z,13.33
2019-05-20T21:11:58.763Z,13.32
2019-05-20T21:14:28.202Z,13.28
2019-05-20T21:16:57.596Z,13.32
2019-05-20T21:19:26.998Z,13.30
2019-05-20T21:21:58.741Z,13.22
2019-05-20T21:24:34.257Z,13.18
2019-05-20T21:27:03.642Z,13.11
2019-05-20T21:29:33.043Z,13.13
2019-05-20T21:32:02.500Z,13.10
2019-05-20T21:34:31.994Z,12.93
2019-05-20T21:37:01.294Z,12.95
2019-05-20T21:39:30.728Z,12.91
2019-05-20T21:42:00.170Z,12.90
2019-05-20T21:44:29.621Z,12.77
2019-05-20T21:46:58.954Z,12.73
2019-05-20T21:49:28.361Z,12.69
2019-05-20T21:51:57.758Z,12.64
2019-05-20T21:54:27.281Z,12.59
2019-05-20T21:56:56.728Z,12.45
2019-05-20T21:59:26.134Z,12.16
2019-05-20T22:01:55.528Z,12.35
2019-05-20T22:04:24.979Z,12.42
2019-05-20T22:06:54.324Z,12.51
2019-05-20T22:09:23.737Z,12.50
2019-05-20T22:11:53.109Z,12.52
2019-05-20T22:14:22.467Z,12.49
2019-05-20T22:16:51.833Z,12.40
2019-05-20T22:19:21.233Z,12.41
2019-05-20T22:21:56.706Z,12.35
2019-05-20T22:24:26.076Z,12.26
2019-05-20T22:26:55.439Z,12.27
2019-05-20T22:29:24.849Z,12.27
2019-05-20T22:31:54.291Z,12.36
2019-05-20T22:34:23.653Z,12.33
2019-05-20T22:36:52.981Z,12.41
2019-05-20T22:39:22.342Z,12.40
2019-05-20T22:41:51.724Z,12.36
2019-05-20T22:44:21.078Z,12.27
2019-05-20T22:46:50.525Z,12.28
2019-05-20T22:49:19.934Z,12.22
2019-05-20T22:51:49.307Z,12.20
2019-05-20T22:54:18.648Z,12.19
2019-05-20T22:56:47.998Z,12.17
2019-05-20T22:59:17.354Z,12.20
2019-05-20T23:01:46.692Z,11.97
2019-05-20T23:04:16.045Z,12.02
2019-05-20T23:06:45.406Z,12.06
2019-05-20T23:09:15.101Z,11.73
2019-05-20T23:11:44.567Z,11.89
2019-05-20T23:14:13.926Z,12.03
2019-05-20T23:16:43.277Z,12.09
2019-05-20T23:19:12.626Z,11.92
2019-05-20T23:21:41.956Z,12.13
2019-05-20T23:24:11.376Z,11.93
2019-05-20T23:26:40.790Z,11.93
2019-05-20T23:29:10.588Z,12.15
2019-05-20T23:31:39.949Z,12.14
2019-05-20T23:34:12.712Z,12.19
2019-05-20T23:36:40.336Z,12.14
2019-05-20T23:39:09.673Z,12.08
2019-05-20T23:41:39.043Z,12.07
2019-05-20T23:44:08.444Z,12.04
2019-05-20T23:46:37.766Z,12.00
2019-05-20T23:49:07.104Z,11.92
2019-05-20T23:51:36.467Z,11.90
2019-05-20T23:54:05.800Z,11.46
2019-05-20T23:56:35.203Z,11.60
2019-05-20T23:59:04.618Z,11.73
